sensor_id;sensor_type;location;lat;lon;timestamp;pressure;altitude;pressure_sealevel;temperature;humidity
55538;BME280;41383;51.418;7.286;2022-10-31T00:02:14;100353.25;;;16.15;74.69
55538;BME280;41383;51.418;7.286;2022-10-31T00:04:39;100352.78;;;16.08;75.33
55538;BME280;41383;51.418;7.286;2022-10-31T00:07:04;100352.22;;;16.06;75.49
55538;BME280;41383;51.418;7.286;2022-10-31T00:09:29;100355.13;;;16.20;74.88
55538;BME280;41383;51.418;7.286;2022-10-31T00:11:55;100350.22;;;16.17;75.19
55538;BME280;41383;51.418;7.286;2022-10-31T00:14:20;100347.66;;;16.26;74.89
55538;BME280;41383;51.418;7.286;2022-10-31T00:16:45;100350.19;;;16.22;75.25
55538;BME280;41383;51.418;7.286;2022-10-31T00:19:11;100349.41;;;16.16;74.63
55538;BME280;41383;51.418;7.286;2022-10-31T00:21:36;100355.53;;;16.08;75.56
55538;BME280;41383;51.418;7.286;2022-10-31T00:24:01;100354.47;;;15.98;76.33
55538;BME280;41383;51.418;7.286;2022-10-31T00:26:28;100350.78;;;16.14;75.48
55538;BME280;41383;51.418;7.286;2022-10-31T00:28:54;100361.06;;;16.03;76.17
55538;BME280;41383;51.418;7.286;2022-10-31T00:31:19;100349.00;;;15.93;76.56
55538;BME280;41383;51.418;7.286;2022-10-31T00:33:44;100350.66;;;15.94;76.37
55538;BME280;41383;51.418;7.286;2022-10-31T00:36:15;100357.19;;;16.04;75.90
55538;BME280;41383;51.418;7.286;2022-10-31T00:38:41;100348.97;;;15.98;76.36
55538;BME280;41383;51.418;7.286;2022-10-31T00:41:07;100344.28;;;15.64;77.79
55538;BME280;41383;51.418;7.286;2022-10-31T00:43:32;100353.38;;;15.54;78.53
55538;BME280;41383;51.418;7.286;2022-10-31T00:45:57;100346.59;;;15.41;78.68
55538;BME280;41383;51.418;7.286;2022-10-31T00:48:22;100357.63;;;15.31;78.98
55538;BME280;41383;51.418;7.286;2022-10-31T00:50:48;100359.81;;;15.39;78.83
55538;BME280;41383;51.418;7.286;2022-10-31T00:53:13;100338.59;;;15.45;78.57
55538;BME280;41383;51.418;7.286;2022-10-31T00:55:38;100342.50;;;15.38;79.29
55538;BME280;41383;51.418;7.286;2022-10-31T00:58:03;100349.19;;;15.16;79.77
55538;BME280;41383;51.418;7.286;2022-10-31T01:00:29;100350.06;;;15.07;79.87
55538;BME280;41383;51.418;7.286;2022-10-31T01:02:54;100351.19;;;15.00;79.88
55538;BME280;41383;51.418;7.286;2022-10-31T01:05:19;100356.13;;;14.98;80.16
55538;BME280;41383;51.418;7.286;2022-10-31T01:07:44;100361.03;;;15.01;79.89
55538;BME280;41383;51.418;7.286;2022-10-31T01:10:10;100353.34;;;15.09;79.82
55538;BME280;41383;51.418;7.286;2022-10-31T01:12:43;100366.03;;;14.94;80.45
55538;BME280;41383;51.418;7.286;2022-10-31T01:15:12;100364.66;;;14.91;81.67
55538;BME280;41383;51.418;7.286;2022-10-31T01:17:38;100370.69;;;14.93;81.51
55538;BME280;41383;51.418;7.286;2022-10-31T01:20:04;100359.09;;;15.12;81.27
55538;BME280;41383;51.418;7.286;2022-10-31T01:22:31;100358.25;;;15.17;81.24
55538;BME280;41383;51.418;7.286;2022-10-31T01:24:56;100357.88;;;15.34;80.85
55538;BME280;41383;51.418;7.286;2022-10-31T01:27:22;100366.72;;;15.26;81.35
55538;BME280;41383;51.418;7.286;2022-10-31T01:29:47;100376.47;;;15.53;79.78
55538;BME280;41383;51.418;7.286;2022-10-31T01:32:12;100369.78;;;15.70;78.36
55538;BME280;41383;51.418;7.286;2022-10-31T01:34:38;100375.53;;;15.73;78.32
55538;BME280;41383;51.418;7.286;2022-10-31T01:37:03;100384.25;;;15.86;77.49
55538;BME280;41383;51.418;7.286;2022-10-31T01:39:28;100375.97;;;15.91;77.09
55538;BME280;41383;51.418;7.286;2022-10-31T01:41:54;100378.09;;;15.99;76.84
55538;BME280;41383;51.418;7.286;2022-10-31T01:46:57;100394.41;;;15.85;76.82
55538;BME280;41383;51.418;7.286;2022-10-31T01:52:07;100382.84;;;15.88;76.71
55538;BME280;41383;51.418;7.286;2022-10-31T01:54:39;100379.75;;;15.55;78.65
55538;BME280;41383;51.418;7.286;2022-10-31T01:57:08;100362.50;;;15.49;79.17
55538;BME280;41383;51.418;7.286;2022-10-31T01:59:38;100347.94;;;15.49;78.67
55538;BME280;41383;51.418;7.286;2022-10-31T02:02:05;100346.50;;;15.06;80.11
55538;BME280;41383;51.418;7.286;2022-10-31T02:04:31;100339.63;;;15.03;80.07
55538;BME280;41383;51.418;7.286;2022-10-31T02:07:10;100346.28;;;14.71;81.42
55538;BME280;41383;51.418;7.286;2022-10-31T02:09:38;100345.78;;;14.58;81.68
55538;BME280;41383;51.418;7.286;2022-10-31T02:12:05;100339.47;;;14.68;81.22
55538;BME280;41383;51.418;7.286;2022-10-31T02:14:31;100337.78;;;14.73;81.94
55538;BME280;41383;51.418;7.286;2022-10-31T02:16:57;100324.09;;;14.57;82.02
55538;BME280;41383;51.418;7.286;2022-10-31T02:19:52;100325.50;;;14.49;81.54
55538;BME280;41383;51.418;7.286;2022-10-31T02:22:26;100333.19;;;14.47;82.04
55538;BME280;41383;51.418;7.286;2022-10-31T02:25:21;100329.34;;;14.43;81.88
55538;BME280;41383;51.418;7.286;2022-10-31T02:30:41;100323.56;;;14.55;80.96
55538;BME280;41383;51.418;7.286;2022-10-31T02:33:23;100317.84;;;14.35;82.61
55538;BME280;41383;51.418;7.286;2022-10-31T02:36:02;100325.81;;;14.32;83.02
55538;BME280;41383;51.418;7.286;2022-10-31T02:39:02;100331.03;;;14.33;81.80
55538;BME280;41383;51.418;7.286;2022-10-31T02:41:37;100337.06;;;14.35;82.20
55538;BME280;41383;51.418;7.286;2022-10-31T02:44:16;100340.63;;;14.15;83.14
55538;BME280;41383;51.418;7.286;2022-10-31T02:46:54;100326.63;;;14.17;82.48
55538;BME280;41383;51.418;7.286;2022-10-31T02:49:40;100332.94;;;13.96;84.04
55538;BME280;41383;51.418;7.286;2022-10-31T02:52:23;100328.81;;;13.94;83.99
55538;BME280;41383;51.418;7.286;2022-10-31T02:54:50;100332.66;;;13.98;83.62
55538;BME280;41383;51.418;7.286;2022-10-31T02:57:18;100340.63;;;13.89;84.15
55538;BME280;41383;51.418;7.286;2022-10-31T02:59:54;100340.63;;;14.05;83.30
55538;BME280;41383;51.418;7.286;2022-10-31T03:02:42;100339.25;;;13.86;84.36
55538;BME280;41383;51.418;7.286;2022-10-31T03:07:59;100357.31;;;13.67;84.49
55538;BME280;41383;51.418;7.286;2022-10-31T03:10:42;100366.63;;;13.76;84.30
55538;BME280;41383;51.418;7.286;2022-10-31T03:16:11;100371.56;;;13.79;84.45
55538;BME280;41383;51.418;7.286;2022-10-31T03:21:27;100358.47;;;14.07;83.96
55538;BME280;41383;51.418;7.286;2022-10-31T03:23:56;100363.38;;;13.95;85.41
55538;BME280;41383;51.418;7.286;2022-10-31T03:26:23;100361.19;;;13.97;85.34
55538;BME280;41383;51.418;7.286;2022-10-31T03:28:53;100349.66;;;14.00;84.70
55538;BME280;41383;51.418;7.286;2022-10-31T03:31:24;100367.75;;;13.91;85.37
55538;BME280;41383;51.418;7.286;2022-10-31T03:33:51;100361.72;;;14.04;85.32
55538;BME280;41383;51.418;7.286;2022-10-31T03:36:18;100358.19;;;14.19;84.68
55538;BME280;41383;51.418;7.286;2022-10-31T03:38:45;100357.34;;;14.50;84.24
55538;BME280;41383;51.418;7.286;2022-10-31T03:41:16;100366.66;;;14.33;84.61
55538;BME280;41383;51.418;7.286;2022-10-31T03:43:48;100351.28;;;14.43;84.67
55538;BME280;41383;51.418;7.286;2022-10-31T03:46:16;100350.78;;;14.15;84.69
55538;BME280;41383;51.418;7.286;2022-10-31T03:48:42;100346.38;;;13.98;85.74
55538;BME280;41383;51.418;7.286;2022-10-31T03:51:14;100344.75;;;14.07;85.25
55538;BME280;41383;51.418;7.286;2022-10-31T03:53:50;100351.34;;;14.11;85.41
55538;BME280;41383;51.418;7.286;2022-10-31T03:56:23;100350.75;;;14.20;84.53
55538;BME280;41383;51.418;7.286;2022-10-31T03:59:13;100342.81;;;14.29;83.90
55538;BME280;41383;51.418;7.286;2022-10-31T04:01:45;100342.00;;;14.33;83.84
55538;BME280;41383;51.418;7.286;2022-10-31T04:04:12;100354.59;;;14.40;83.47
55538;BME280;41383;51.418;7.286;2022-10-31T04:06:40;100341.44;;;14.42;82.63
55538;BME280;41383;51.418;7.286;2022-10-31T04:09:08;100338.63;;;14.63;81.99
55538;BME280;41383;51.418;7.286;2022-10-31T04:11:38;100336.41;;;14.75;81.53
55538;BME280;41383;51.418;7.286;2022-10-31T04:14:06;100337.50;;;14.69;81.43
55538;BME280;41383;51.418;7.286;2022-10-31T04:16:32;100337.00;;;14.62;82.11
55538;BME280;41383;51.418;7.286;2022-10-31T04:18:57;100342.75;;;14.65;82.03
55538;BME280;41383;51.418;7.286;2022-10-31T04:21:30;100330.41;;;14.68;81.54
55538;BME280;41383;51.418;7.286;2022-10-31T04:23:56;100332.81;;;14.75;81.60
55538;BME280;41383;51.418;7.286;2022-10-31T04:26:21;100337.56;;;14.43;82.29
55538;BME280;41383;51.418;7.286;2022-10-31T04:28:46;100333.22;;;14.21;83.05
55538;BME280;41383;51.418;7.286;2022-10-31T04:31:12;100328.81;;;14.20;83.29
55538;BME280;41383;51.418;7.286;2022-10-31T04:33:38;100326.34;;;14.18;83.28
55538;BME280;41383;51.418;7.286;2022-10-31T04:36:04;100326.09;;;14.04;83.45
55538;BME280;41383;51.418;7.286;2022-10-31T04:38:29;100324.72;;;14.07;83.62
55538;BME280;41383;51.418;7.286;2022-10-31T04:40:55;100333.22;;;13.84;84.44
55538;BME280;41383;51.418;7.286;2022-10-31T04:43:20;100341.19;;;13.91;83.51
55538;BME280;41383;51.418;7.286;2022-10-31T04:45:45;100343.06;;;13.70;84.54
55538;BME280;41383;51.418;7.286;2022-10-31T04:48:11;100337.06;;;13.78;84.49
55538;BME280;41383;51.418;7.286;2022-10-31T04:50:36;100321.44;;;13.79;84.44
55538;BME280;41383;51.418;7.286;2022-10-31T04:53:01;100324.44;;;13.87;84.14
55538;BME280;41383;51.418;7.286;2022-10-31T04:55:26;100316.78;;;14.00;83.73
55538;BME280;41383;51.418;7.286;2022-10-31T04:57:52;100315.13;;;13.99;83.95
55538;BME280;41383;51.418;7.286;2022-10-31T05:00:19;100311.28;;;14.16;83.64
55538;BME280;41383;51.418;7.286;2022-10-31T05:02:48;100315.09;;;14.20;83.46
55538;BME280;41383;51.418;7.286;2022-10-31T05:05:15;100314.03;;;14.00;83.57
55538;BME280;41383;51.418;7.286;2022-10-31T05:07:42;100324.44;;;14.08;83.17
55538;BME280;41383;51.418;7.286;2022-10-31T05:10:10;100316.78;;;14.00;83.01
55538;BME280;41383;51.418;7.286;2022-10-31T05:12:35;100305.81;;;13.69;84.20
55538;BME280;41383;51.418;7.286;2022-10-31T05:15:01;100298.13;;;14.02;83.35
55538;BME280;41383;51.418;7.286;2022-10-31T05:17:26;100307.69;;;14.36;82.23
55538;BME280;41383;51.418;7.286;2022-10-31T05:19:51;100312.66;;;14.23;82.54
55538;BME280;41383;51.418;7.286;2022-10-31T05:22:17;100317.06;;;14.09;82.61
55538;BME280;41383;51.418;7.286;2022-10-31T05:24:42;100305.81;;;13.89;82.77
55538;BME280;41383;51.418;7.286;2022-10-31T05:27:07;100299.22;;;14.17;82.83
55538;BME280;41383;51.418;7.286;2022-10-31T05:29:32;100297.56;;;14.31;82.27
55538;BME280;41383;51.418;7.286;2022-10-31T05:31:59;100305.50;;;14.33;81.88
55538;BME280;41383;51.418;7.286;2022-10-31T05:34:24;100300.84;;;14.28;82.28
55538;BME280;41383;51.418;7.286;2022-10-31T05:40:21;100290.66;;;14.50;81.32
55538;BME280;41383;51.418;7.286;2022-10-31T05:42:49;100292.31;;;14.40;81.61
55538;BME280;41383;51.418;7.286;2022-10-31T05:45:16;100288.22;;;14.38;81.76
55538;BME280;41383;51.418;7.286;2022-10-31T05:47:42;100292.59;;;14.39;81.57
55538;BME280;41383;51.418;7.286;2022-10-31T05:50:12;100299.72;;;14.45;81.88
55538;BME280;41383;51.418;7.286;2022-10-31T05:52:38;100290.88;;;14.58;81.24
55538;BME280;41383;51.418;7.286;2022-10-31T05:55:03;100294.75;;;14.57;81.12
55538;BME280;41383;51.418;7.286;2022-10-31T05:57:33;100292.53;;;14.65;80.97
55538;BME280;41383;51.418;7.286;2022-10-31T05:59:59;100299.94;;;14.59;80.98
55538;BME280;41383;51.418;7.286;2022-10-31T06:02:24;100296.44;;;14.32;82.40
55538;BME280;41383;51.418;7.286;2022-10-31T06:04:50;100304.41;;;14.39;82.19
55538;BME280;41383;51.418;7.286;2022-10-31T06:07:15;100300.81;;;14.49;81.69
55538;BME280;41383;51.418;7.286;2022-10-31T06:09:40;100288.97;;;14.59;81.41
55538;BME280;41383;51.418;7.286;2022-10-31T06:12:06;100279.44;;;14.35;82.06
55538;BME280;41383;51.418;7.286;2022-10-31T06:14:31;100289.81;;;14.54;81.39
55538;BME280;41383;51.418;7.286;2022-10-31T06:16:56;100284.63;;;14.47;81.57
55538;BME280;41383;51.418;7.286;2022-10-31T06:19:22;100282.66;;;14.58;81.16
55538;BME280;41383;51.418;7.286;2022-10-31T06:21:47;100278.25;;;14.63;80.95
55538;BME280;41383;51.418;7.286;2022-10-31T06:24:12;100284.31;;;14.59;80.85
55538;BME280;41383;51.418;7.286;2022-10-31T06:26:38;100283.19;;;14.61;80.66
55538;BME280;41383;51.418;7.286;2022-10-31T06:29:03;100288.69;;;14.61;80.94
55538;BME280;41383;51.418;7.286;2022-10-31T06:31:28;100285.16;;;14.60;80.65
55538;BME280;41383;51.418;7.286;2022-10-31T06:33:54;100289.22;;;14.63;80.43
55538;BME280;41383;51.418;7.286;2022-10-31T06:36:19;100289.81;;;14.59;80.66
55538;BME280;41383;51.418;7.286;2022-10-31T06:38:44;100290.06;;;14.63;80.54
55538;BME280;41383;51.418;7.286;2022-10-31T06:41:10;100290.63;;;14.60;80.66
55538;BME280;41383;51.418;7.286;2022-10-31T06:43:35;100286.53;;;14.57;80.69
55538;BME280;41383;51.418;7.286;2022-10-31T06:46:04;100288.72;;;14.55;80.93
55538;BME280;41383;51.418;7.286;2022-10-31T06:48:31;100289.84;;;14.49;81.11
55538;BME280;41383;51.418;7.286;2022-10-31T06:51:00;100292.56;;;14.54;81.03
55538;BME280;41383;51.418;7.286;2022-10-31T06:53:26;100289.56;;;14.51;81.36
55538;BME280;41383;51.418;7.286;2022-10-31T06:55:51;100297.78;;;14.56;80.86
55538;BME280;41383;51.418;7.286;2022-10-31T06:58:17;100296.97;;;14.50;81.21
55538;BME280;41383;51.418;7.286;2022-10-31T07:00:42;100303.31;;;14.35;81.77
55538;BME280;41383;51.418;7.286;2022-10-31T07:03:12;100293.16;;;14.35;81.31
55538;BME280;41383;51.418;7.286;2022-10-31T07:05:37;100296.22;;;14.23;81.67
55538;BME280;41383;51.418;7.286;2022-10-31T07:08:08;100308.53;;;14.16;82.42
55538;BME280;41383;51.418;7.286;2022-10-31T07:10:35;100306.91;;;14.25;82.16
55538;BME280;41383;51.418;7.286;2022-10-31T07:13:02;100309.88;;;14.34;81.24
55538;BME280;41383;51.418;7.286;2022-10-31T07:15:29;100309.06;;;14.39;81.10
55538;BME280;41383;51.418;7.286;2022-10-31T07:18:02;100311.81;;;14.18;81.41
55538;BME280;41383;51.418;7.286;2022-10-31T07:20:29;100299.22;;;14.27;81.44
55538;BME280;41383;51.418;7.286;2022-10-31T07:22:54;100301.97;;;14.17;82.00
55538;BME280;41383;51.418;7.286;2022-10-31T07:25:19;100303.06;;;14.10;81.97
55538;BME280;41383;51.418;7.286;2022-10-31T07:27:45;100307.44;;;14.22;81.91
55538;BME280;41383;51.418;7.286;2022-10-31T07:30:11;100309.91;;;14.18;81.93
55538;BME280;41383;51.418;7.286;2022-10-31T07:32:41;100303.03;;;14.36;81.39
55538;BME280;41383;51.418;7.286;2022-10-31T07:35:08;100305.78;;;14.31;81.28
55538;BME280;41383;51.418;7.286;2022-10-31T07:37:34;100310.09;;;14.58;80.36
55538;BME280;41383;51.418;7.286;2022-10-31T07:39:59;100307.94;;;14.50;80.26
55538;BME280;41383;51.418;7.286;2022-10-31T07:42:25;100308.72;;;14.61;80.34
55538;BME280;41383;51.418;7.286;2022-10-31T07:44:50;100308.50;;;14.47;80.16
55538;BME280;41383;51.418;7.286;2022-10-31T07:47:15;100318.34;;;14.64;79.84
55538;BME280;41383;51.418;7.286;2022-10-31T07:49:40;100317.00;;;14.45;80.34
55538;BME280;41383;51.418;7.286;2022-10-31T07:52:06;100314.78;;;14.53;79.80
55538;BME280;41383;51.418;7.286;2022-10-31T07:54:31;100312.31;;;14.56;79.89
55538;BME280;41383;51.418;7.286;2022-10-31T07:56:56;100311.22;;;14.52;80.45
55538;BME280;41383;51.418;7.286;2022-10-31T07:59:21;100306.56;;;14.58;79.73
55538;BME280;41383;51.418;7.286;2022-10-31T08:01:47;100302.19;;;14.46;80.18
55538;BME280;41383;51.418;7.286;2022-10-31T08:04:12;100307.91;;;14.66;79.53
55538;BME280;41383;51.418;7.286;2022-10-31T08:06:37;100301.88;;;14.58;79.53
55538;BME280;41383;51.418;7.286;2022-10-31T08:09:02;100315.56;;;14.74;79.48
55538;BME280;41383;51.418;7.286;2022-10-31T08:11:28;100311.16;;;14.73;79.54
55538;BME280;41383;51.418;7.286;2022-10-31T08:13:53;100312.50;;;14.81;78.64
55538;BME280;41383;51.418;7.286;2022-10-31T08:16:18;100311.19;;;14.68;79.38
55538;BME280;41383;51.418;7.286;2022-10-31T08:18:43;100317.19;;;14.75;79.61
55538;BME280;41383;51.418;7.286;2022-10-31T08:21:09;100313.63;;;14.90;79.26
55538;BME280;41383;51.418;7.286;2022-10-31T08:23:35;100313.31;;;14.92;79.42
55538;BME280;41383;51.418;7.286;2022-10-31T08:26:00;100321.53;;;15.02;78.97
55538;BME280;41383;51.418;7.286;2022-10-31T08:28:26;100322.34;;;15.03;79.28
55538;BME280;41383;51.418;7.286;2022-10-31T08:30:51;100318.78;;;14.97;79.05
55538;BME280;41383;51.418;7.286;2022-10-31T08:33:17;100325.34;;;15.01;78.92
55538;BME280;41383;51.418;7.286;2022-10-31T08:35:43;100319.81;;;15.12;78.73
55538;BME280;41383;51.418;7.286;2022-10-31T08:38:10;100312.91;;;15.25;78.33
55538;BME280;41383;51.418;7.286;2022-10-31T08:40:37;100310.66;;;15.32;78.55
55538;BME280;41383;51.418;7.286;2022-10-31T08:43:05;100313.06;;;15.44;78.28
55538;BME280;41383;51.418;7.286;2022-10-31T08:45:32;100310.09;;;15.35;78.82
55538;BME280;41383;51.418;7.286;2022-10-31T08:48:03;100304.28;;;15.42;78.35
55538;BME280;41383;51.418;7.286;2022-10-31T08:50:30;100302.25;;;15.58;78.23
55538;BME280;41383;51.418;7.286;2022-10-31T08:53:15;100303.13;;;15.54;78.33
55538;BME280;41383;51.418;7.286;2022-10-31T08:55:42;100303.91;;;15.59;77.79
55538;BME280;41383;51.418;7.286;2022-10-31T08:58:16;100296.75;;;15.58;77.86
55538;BME280;41383;51.418;7.286;2022-10-31T09:00:41;100302.00;;;15.09;79.46
55538;BME280;41383;51.418;7.286;2022-10-31T09:03:11;100288.19;;;15.25;79.29
55538;BME280;41383;51.418;7.286;2022-10-31T09:05:37;100292.41;;;15.07;79.35
55538;BME280;41383;51.418;7.286;2022-10-31T09:08:03;100286.63;;;15.54;77.96
55538;BME280;41383;51.418;7.286;2022-10-31T09:10:30;100294.22;;;15.67;78.19
55538;BME280;41383;51.418;7.286;2022-10-31T09:13:06;100289.88;;;15.61;78.25
55538;BME280;41383;51.418;7.286;2022-10-31T09:15:34;100293.75;;;15.60;78.54
55538;BME280;41383;51.418;7.286;2022-10-31T09:17:59;100290.88;;;15.75;77.87
55538;BME280;41383;51.418;7.286;2022-10-31T09:20:26;100281.50;;;15.76;77.91
55538;BME280;41383;51.418;7.286;2022-10-31T09:23:00;100274.06;;;15.82;77.83
55538;BME280;41383;51.418;7.286;2022-10-31T09:25:27;100275.38;;;15.85;77.68
55538;BME280;41383;51.418;7.286;2022-10-31T09:28:00;100269.88;;;15.85;78.12
55538;BME280;41383;51.418;7.286;2022-10-31T09:30:27;100277.75;;;16.02;77.00
55538;BME280;41383;51.418;7.286;2022-10-31T09:35:22;100254.38;;;16.05;77.51
55538;BME280;41383;51.418;7.286;2022-10-31T09:37:56;100256.59;;;16.03;77.54
55538;BME280;41383;51.418;7.286;2022-10-31T09:40:34;100257.06;;;16.10;77.28
55538;BME280;41383;51.418;7.286;2022-10-31T09:48:57;100247.75;;;16.06;77.16
55538;BME280;41383;51.418;7.286;2022-10-31T09:51:30;100251.47;;;16.15;77.27
55538;BME280;41383;51.418;7.286;2022-10-31T09:54:11;100249.84;;;16.14;77.69
55538;BME280;41383;51.418;7.286;2022-10-31T09:56:38;100254.66;;;16.28;77.84
55538;BME280;41383;51.418;7.286;2022-10-31T09:59:05;100240.91;;;16.28;77.54
55538;BME280;41383;51.418;7.286;2022-10-31T10:01:49;100246.41;;;16.28;77.43
55538;BME280;41383;51.418;7.286;2022-10-31T10:04:41;100249.22;;;16.22;77.35
55538;BME280;41383;51.418;7.286;2022-10-31T10:07:20;100248.22;;;16.38;76.93
55538;BME280;41383;51.418;7.286;2022-10-31T10:09:47;100241.84;;;16.42;76.50
55538;BME280;41383;51.418;7.286;2022-10-31T10:12:38;100245.19;;;16.39;77.32
55538;BME280;41383;51.418;7.286;2022-10-31T10:17:52;100244.00;;;16.70;76.55
55538;BME280;41383;51.418;7.286;2022-10-31T10:20:44;100245.22;;;16.83;75.90
55538;BME280;41383;51.418;7.286;2022-10-31T10:26:10;100229.13;;;16.90;75.78
55538;BME280;41383;51.418;7.286;2022-10-31T10:28:40;100231.75;;;17.01;75.40
55538;BME280;41383;51.418;7.286;2022-10-31T10:31:15;100231.91;;;17.10;74.78
55538;BME280;41383;51.418;7.286;2022-10-31T10:33:55;100231.59;;;17.17;75.68
55538;BME280;41383;51.418;7.286;2022-10-31T10:36:42;100225.78;;;17.18;75.28
55538;BME280;41383;51.418;7.286;2022-10-31T10:39:18;100214.81;;;17.32;74.70
55538;BME280;41383;51.418;7.286;2022-10-31T10:41:47;100202.81;;;17.42;74.56
55538;BME280;41383;51.418;7.286;2022-10-31T10:44:33;100207.50;;;17.42;74.41
55538;BME280;41383;51.418;7.286;2022-10-31T10:47:18;100203.63;;;17.43;74.15
55538;BME280;41383;51.418;7.286;2022-10-31T10:50:10;100195.53;;;17.32;74.49
55538;BME280;41383;51.418;7.286;2022-10-31T10:55:39;100192.50;;;17.48;74.90
55538;BME280;41383;51.418;7.286;2022-10-31T10:58:09;100200.34;;;17.41;75.36
55538;BME280;41383;51.418;7.286;2022-10-31T11:00:40;100180.44;;;17.44;74.88
55538;BME280;41383;51.418;7.286;2022-10-31T11:03:06;100180.91;;;17.51;74.84
55538;BME280;41383;51.418;7.286;2022-10-31T11:05:38;100167.63;;;17.53;74.84
55538;BME280;41383;51.418;7.286;2022-10-31T11:08:05;100175.38;;;17.51;74.13
55538;BME280;41383;51.418;7.286;2022-10-31T11:10:31;100155.69;;;17.58;74.31
55538;BME280;41383;51.418;7.286;2022-10-31T11:13:21;100150.88;;;17.64;74.18
55538;BME280;41383;51.418;7.286;2022-10-31T11:16:09;100148.59;;;17.85;73.05
55538;BME280;41383;51.418;7.286;2022-10-31T11:18:41;100147.94;;;17.74;73.58
55538;BME280;41383;51.418;7.286;2022-10-31T11:21:20;100141.16;;;18.00;73.02
55538;BME280;41383;51.418;7.286;2022-10-31T11:23:46;100129.47;;;17.89;73.48
55538;BME280;41383;51.418;7.286;2022-10-31T11:26:19;100124.38;;;17.96;72.90
55538;BME280;41383;51.418;7.286;2022-10-31T11:28:56;100112.34;;;18.06;72.42
55538;BME280;41383;51.418;7.286;2022-10-31T11:31:21;100108.84;;;18.00;72.99
55538;BME280;41383;51.418;7.286;2022-10-31T11:33:49;100099.84;;;17.94;73.44
55538;BME280;41383;51.418;7.286;2022-10-31T11:36:29;100098.63;;;18.01;73.03
55538;BME280;41383;51.418;7.286;2022-10-31T11:38:55;100103.75;;;18.07;72.79
55538;BME280;41383;51.418;7.286;2022-10-31T11:41:35;100099.25;;;18.12;72.90
55538;BME280;41383;51.418;7.286;2022-10-31T11:44:13;100094.25;;;18.28;72.23
55538;BME280;41383;51.418;7.286;2022-10-31T11:46:49;100094.94;;;18.34;72.23
55538;BME280;41383;51.418;7.286;2022-10-31T11:49:20;100099.25;;;18.12;72.83
55538;BME280;41383;51.418;7.286;2022-10-31T11:51:51;100103.97;;;18.25;72.16
55538;BME280;41383;51.418;7.286;2022-10-31T11:54:31;100095.59;;;18.30;71.61
55538;BME280;41383;51.418;7.286;2022-10-31T11:56:58;100088.53;;;18.24;71.84
55538;BME280;41383;51.418;7.286;2022-10-31T11:59:29;100081.38;;;18.23;71.13
55538;BME280;41383;51.418;7.286;2022-10-31T12:01:57;100077.59;;;18.19;71.07
55538;BME280;41383;51.418;7.286;2022-10-31T12:04:35;100079.00;;;18.02;71.51
55538;BME280;41383;51.418;7.286;2022-10-31T12:07:02;100069.81;;;18.21;71.38
55538;BME280;41383;51.418;7.286;2022-10-31T12:09:29;100061.56;;;18.21;71.17
55538;BME280;41383;51.418;7.286;2022-10-31T12:12:34;100059.94;;;18.20;71.38
55538;BME280;41383;51.418;7.286;2022-10-31T12:20:55;100053.69;;;18.28;71.19
55538;BME280;41383;51.418;7.286;2022-10-31T12:23:53;100047.16;;;18.24;70.88
55538;BME280;41383;51.418;7.286;2022-10-31T12:26:56;100037.28;;;18.46;69.66
55538;BME280;41383;51.418;7.286;2022-10-31T12:32:30;100026.59;;;18.53;69.99
55538;BME280;41383;51.418;7.286;2022-10-31T12:35:18;100017.97;;;18.69;69.76
55538;BME280;41383;51.418;7.286;2022-10-31T12:37:57;100019.84;;;18.60;69.82
55538;BME280;41383;51.418;7.286;2022-10-31T12:43:28;100003.34;;;18.69;69.78
55538;BME280;41383;51.418;7.286;2022-10-31T12:46:00;100005.28;;;18.68;70.09
55538;BME280;41383;51.418;7.286;2022-10-31T12:51:48;99997.50;;;18.70;70.12
55538;BME280;41383;51.418;7.286;2022-10-31T12:54:38;99990.56;;;18.82;70.20
55538;BME280;41383;51.418;7.286;2022-10-31T12:57:21;99986.81;;;18.77;70.21
55538;BME280;41383;51.418;7.286;2022-10-31T12:59:55;99980.34;;;18.82;69.60
55538;BME280;41383;51.418;7.286;2022-10-31T13:02:33;99979.53;;;18.82;69.48
55538;BME280;41383;51.418;7.286;2022-10-31T13:05:27;99961.84;;;18.83;69.32
55538;BME280;41383;51.418;7.286;2022-10-31T13:07:58;99953.13;;;18.89;68.98
55538;BME280;41383;51.418;7.286;2022-10-31T13:10:39;99954.56;;;18.87;69.05
55538;BME280;41383;51.418;7.286;2022-10-31T13:13:13;99950.81;;;18.92;68.64
55538;BME280;41383;51.418;7.286;2022-10-31T13:15:48;99941.44;;;18.93;68.49
55538;BME280;41383;51.418;7.286;2022-10-31T13:18:26;99938.84;;;18.96;68.41
55538;BME280;41383;51.418;7.286;2022-10-31T13:20:53;99932.00;;;18.94;68.22
55538;BME280;41383;51.418;7.286;2022-10-31T13:23:32;99934.97;;;18.97;68.07
55538;BME280;41383;51.418;7.286;2022-10-31T13:26:01;99936.56;;;18.98;67.41
55538;BME280;41383;51.418;7.286;2022-10-31T13:30:56;99932.03;;;19.02;67.19
55538;BME280;41383;51.418;7.286;2022-10-31T13:33:26;99924.91;;;19.01;67.47
55538;BME280;41383;51.418;7.286;2022-10-31T13:36:13;99921.91;;;18.89;67.60
55538;BME280;41383;51.418;7.286;2022-10-31T13:39:02;99911.31;;;18.82;66.91
55538;BME280;41383;51.418;7.286;2022-10-31T13:41:54;99907.78;;;18.90;67.02
55538;BME280;41383;51.418;7.286;2022-10-31T13:44:24;99900.94;;;18.88;66.61
55538;BME280;41383;51.418;7.286;2022-10-31T13:46:56;99897.88;;;18.89;66.85
55538;BME280;41383;51.418;7.286;2022-10-31T13:49:36;99891.38;;;18.85;65.73
55538;BME280;41383;51.418;7.286;2022-10-31T13:57:06;99869.13;;;18.90;64.51
55538;BME280;41383;51.418;7.286;2022-10-31T13:59:35;99870.44;;;18.93;65.06
55538;BME280;41383;51.418;7.286;2022-10-31T14:02:13;99869.56;;;18.84;64.79
55538;BME280;41383;51.418;7.286;2022-10-31T14:04:48;99863.09;;;18.88;64.18
55538;BME280;41383;51.418;7.286;2022-10-31T14:07:19;99865.03;;;18.88;63.97